Abejones, Mexico

9:12 AM CST on December 07, 2016 (GMT -0600)
Ixtapa-Zihuatanejo International | | Change Station

Elev 20 ft 17.60 °N, 101.46 °W | Updated 27 minutes ago

Clear
Clear
73 °F
Feels Like 73 °F
N
0
Wind Variable Wind from North

Today
High -- | Low -- °F
--% Chance of Precip.
Yesterday
High -- | Low -- °F
Precip. -- in
Pressure 29.96 in
Visibility 7.0 miles
Clouds Clear
Dew Point 66 °F
Humidity 78%
Rainfall 0.00 in
Snow Depth Not available.
7:05 AM 6:10 PM
First Quarter, 53% visible
METAR MMZH 071445Z 00000KT 7SM SKC 23/19 A2997 RMK SLP143 52016 916
Pressure 29.96 in
Visibility 7.0 miles
Clouds Clear
Dew Point 66 °F
Humidity 78%
Rainfall 0.00 in
Snow Depth Not available.
7:05 AM 6:10 PM
First Quarter, 53% visible
METAR MMZH 071445Z 00000KT 7SM SKC 23/19 A2997 RMK SLP143 52016 916

10-Day Weather Forecast

No radar image for this location.
×

Almanac

Astronomy

Dec. 07, 2016 Rise Set
Actual Time
Civil Twilight
Nautical Twilight
Astronomical Twilight
Moon
Length of Visible Light
Length of Day
Tomorrow will be .
, % of the Moon is Illuminated

Today's Extremes

Country Highs Country Lows

Community

WunderPhotos

Upload Photos

1,956,118 photos uploaded!

WunderBlog® & News

Nearby

Air Quality

  Air Quality AQ Index Pollutant
Not available.

Snow Depth

Station Depth Elevation

Earthquake Activity

City Distance Mag. Time & Date
Minimum magnitude displayed is 2.5.

Coastal Water Temperatures

Place Temperature

Stations

Nearby Weather Stations

Station Location Temp. Windchill Dew Point Humidity Wind Precip. Elev Updated Type